Time;durP1;ratioP1;P1;durP2;ratioP2;P2;SDS_P1;SDS_P2;PMS_P1;PMS_P2;Temp;Humidity;BMP_temperature;BMP_pressure;BME280_temperature;BME280_humidity;BME280_pressure;Samples;Min_cycle;Max_cycle;Signal;HPM_P1;HPM_P2
2021/06/19 00:00:37;;;;;;;19.50;7.90;;;;;;;18.38;62.95;99145.44;2175007;82;21020;-69
2021/06/19 00:03:39;;;;;;;18.73;7.60;;;;;;;18.38;63.00;99144.11;2174988;82;21008;-69
2021/06/19 00:06:39;;;;;;;19.95;8.05;;;;;;;18.35;62.83;99142.56;2175250;82;21024;-74
2021/06/19 00:09:40;;;;;;;21.40;7.85;;;;;;;18.31;63.37;99138.49;2175211;82;20981;-71
2021/06/19 00:12:40;;;;;;;19.12;8.23;;;;;;;18.26;63.42;99134.06;2175267;82;20992;-67
2021/06/19 00:15:41;;;;;;;23.45;10.63;;;;;;;18.22;64.22;99136.16;2174909;82;21034;-72
2021/06/19 00:18:42;;;;;;;21.90;10.58;;;;;;;18.18;64.12;99130.77;2175009;81;21007;-69
2021/06/19 00:21:42;;;;;;;24.18;10.70;;;;;;;18.08;63.97;99127.25;2175175;81;20972;-69
2021/06/19 00:24:43;;;;;;;27.42;12.20;;;;;;;18.08;63.97;99127.25;2175051;82;21654;-72
2021/06/19 00:27:43;;;;;;;25.52;12.33;;;;;;;18.03;64.14;99127.66;2175136;82;21040;-67
2021/06/19 00:30:44;;;;;;;23.60;8.68;;;;;;;17.95;64.21;99131.45;2174979;81;20953;-69
2021/06/19 00:33:44;;;;;;;21.95;9.43;;;;;;;17.58;65.86;99134.09;2175041;82;20964;-71
2021/06/19 00:36:45;;;;;;;21.50;8.48;;;;;;;17.58;65.86;99134.09;2174792;82;21036;-72
2021/06/19 00:39:45;;;;;;;20.60;8.75;;;;;;;17.37;66.67;99143.40;2175261;82;20977;-66
2021/06/19 00:42:45;;;;;;;20.75;8.65;;;;;;;17.20;67.92;99138.68;2175109;82;21008;-74
2021/06/19 00:45:46;;;;;;;24.52;9.10;;;;;;;17.08;69.16;99138.73;2175133;82;20965;-70
2021/06/19 00:48:46;;;;;;;24.23;9.28;;;;;;;16.97;68.07;99142.75;2175210;82;21052;-66
2021/06/19 00:51:48;;;;;;;21.17;9.25;;;;;;;16.83;68.04;99139.04;2174694;82;21051;-69
2021/06/19 00:54:48;;;;;;;23.30;9.55;;;;;;;16.83;68.04;99139.04;2175299;82;21007;-68
2021/06/19 00:57:49;;;;;;;21.80;9.30;;;;;;;16.75;68.87;99134.34;2174972;82;20945;-69
2021/06/19 01:00:49;;;;;;;24.82;9.35;;;;;;;16.64;68.73;99131.27;2175003;82;21092;-68
2021/06/19 01:03:50;;;;;;;26.12;10.13;;;;;;;16.60;68.67;99133.31;2175107;82;20988;-68
2021/06/19 01:06:50;;;;;;;26.77;11.40;;;;;;;16.56;68.68;99131.87;2175088;82;20961;-72
2021/06/19 01:09:50;;;;;;;60.63;27.30;;;;;;;16.53;68.64;99127.32;2175042;82;20996;-66
2021/06/19 01:12:51;;;;;;;26.15;11.05;;;;;;;16.53;68.77;99127.32;2175081;82;21017;-70
2021/06/19 01:15:51;;;;;;;20.50;8.98;;;;;;;16.52;68.86;99127.81;2175067;82;21535;-70
2021/06/19 01:18:52;;;;;;;22.50;8.95;;;;;;;16.50;68.85;99124.44;2174728;82;20981;-65
2021/06/19 01:21:53;;;;;;;22.90;9.20;;;;;;;16.45;69.54;99122.66;2174970;82;21083;-71
2021/06/19 01:24:53;;;;;;;24.05;8.63;;;;;;;16.45;69.54;99122.66;2175091;82;20988;-66
2021/06/19 01:27:54;;;;;;;22.55;9.90;;;;;;;16.42;69.92;99127.72;2175182;82;20957;-71
2021/06/19 01:30:54;;;;;;;27.27;11.28;;;;;;;16.44;69.64;99128.41;2175037;82;20995;-70
2021/06/19 01:33:55;;;;;;;24.55;11.08;;;;;;;16.42;69.31;99130.82;2174920;82;20965;-63
2021/06/19 01:36:55;;;;;;;21.15;8.50;;;;;;;16.26;69.96;99135.18;2176821;82;21009;-66
2021/06/19 01:39:55;;;;;;;19.45;8.33;;;;;;;16.07;70.70;99137.96;2177042;82;21644;-68
2021/06/19 01:42:56;;;;;;;23.57;9.18;;;;;;;15.81;71.29;99134.72;2177056;82;21004;-66
2021/06/19 01:45:56;;;;;;;21.23;8.98;;;;;;;15.53;70.64;99135.97;2176811;82;21027;-63
2021/06/19 01:48:59;;;;;;;;;;;;;;;15.49;70.86;99139.84;2179242;82;21009;-71
2021/06/19 01:51:59;;;;;;;21.52;9.63;;;;;;;15.43;72.03;99145.11;2177019;82;20099;-70
2021/06/19 01:55:00;;;;;;;19.87;9.05;;;;;;;15.42;72.32;99139.45;2177151;82;20964;-71
2021/06/19 01:58:00;;;;;;;20.85;9.25;;;;;;;15.41;72.52;99143.91;2176984;82;20968;-64
2021/06/19 02:01:01;;;;;;;22.17;9.15;;;;;;;15.40;72.23;99146.18;2177006;82;20997;-66
2021/06/19 02:04:01;;;;;;;24.32;11.57;;;;;;;15.38;71.95;99140.15;2177156;82;20976;-65
2021/06/19 02:07:02;;;;;;;25.57;11.50;;;;;;;15.40;71.88;99146.18;2177175;81;20976;-66
2021/06/19 02:10:02;;;;;;;27.45;10.23;;;;;;;15.45;71.95;99137.06;2176506;82;20997;-64
2021/06/19 02:13:03;;;;;;;32.03;13.53;;;;;;;15.45;72.08;99140.53;2176959;81;21028;-66
2021/06/19 02:16:03;;;;;;;23.27;10.60;;;;;;;15.44;71.96;99133.55;2177276;81;20972;-65
2021/06/19 02:19:03;;;;;;;24.52;10.88;;;;;;;15.41;71.89;99139.08;2176994;81;20973;-65
2021/06/19 02:22:04;;;;;;;23.10;11.15;;;;;;;15.38;71.77;99132.70;2177058;81;21507;-65
2021/06/19 02:25:04;;;;;;;23.80;11.68;;;;;;;15.26;72.25;99131.84;2176920;81;21464;-63
2021/06/19 02:28:05;;;;;;;23.65;10.28;;;;;;;15.23;72.08;99133.41;2176894;81;20984;-68
2021/06/19 02:31:05;;;;;;;22.22;10.45;;;;;;;15.20;72.42;99134.93;2177041;81;21494;-64
2021/06/19 02:34:06;;;;;;;22.30;10.58;;;;;;;15.20;72.37;99140.22;2177186;82;21023;-66
2021/06/19 02:37:06;;;;;;;24.12;10.08;;;;;;;15.19;72.63;99135.42;2174825;81;20993;-68
2021/06/19 02:40:06;;;;;;;22.60;10.38;;;;;;;15.21;72.64;99137.95;2174963;82;21092;-63
2021/06/19 02:43:07;;;;;;;24.00;10.40;;;;;;;15.22;72.55;99131.71;2175073;82;21810;-67
2021/06/19 02:46:07;;;;;;;24.80;11.75;;;;;;;15.24;72.51;99128.46;2175018;82;21000;-67
2021/06/19 02:49:08;;;;;;;23.47;11.75;;;;;;;15.30;72.41;99131.98;2174841;82;21091;-65
2021/06/19 02:52:09;;;;;;;25.77;12.33;;;;;;;15.25;72.51;99132.80;2175042;82;21020;-66
2021/06/19 02:55:10;;;;;;;22.95;10.55;;;;;;;15.25;72.82;99134.12;2175208;82;21015;-63
2021/06/19 02:58:10;;;;;;;20.25;8.20;;;;;;;15.32;73.06;99139.80;2175082;81;21515;-64
2021/06/19 03:01:10;;;;;;;23.10;10.15;;;;;;;15.39;72.84;99141.01;2175034;82;20973;-66
2021/06/19 03:04:13;;;;;;;18.75;7.45;;;;;;;15.33;73.13;99140.13;2175063;82;21041;-65
2021/06/19 03:07:13;;;;;;;20.95;10.48;;;;;;;15.35;72.61;99142.20;2151542;82;21016;-66
2021/06/19 03:10:14;;;;;;;23.40;10.20;;;;;;;15.28;72.89;99144.45;2175100;82;21009;-68
2021/06/19 03:13:14;;;;;;;22.48;10.00;;;;;;;15.34;72.63;99137.41;2175254;82;21012;-69
2021/06/19 03:16:15;;;;;;;22.77;10.23;;;;;;;15.48;72.83;99137.66;2175475;82;20979;-64
2021/06/19 03:19:15;;;;;;;22.60;9.88;;;;;;;15.66;72.74;99139.84;2175386;82;20961;-68
2021/06/19 03:22:16;;;;;;;23.22;10.18;;;;;;;15.79;72.51;99141.95;2175388;82;20938;-64
2021/06/19 03:25:16;;;;;;;23.75;10.40;;;;;;;15.94;72.46;99139.41;2175130;82;21016;-63
2021/06/19 03:28:17;;;;;;;24.18;10.55;;;;;;;16.15;72.12;99137.84;2175251;82;21447;-64
2021/06/19 03:31:17;;;;;;;20.75;9.35;;;;;;;16.19;72.03;99144.11;2175258;82;21075;-64
2021/06/19 03:34:18;;;;;;;22.48;11.20;;;;;;;16.21;71.46;99144.81;2175019;82;21051;-64
2021/06/19 03:37:18;;;;;;;22.20;9.85;;;;;;;16.30;71.79;99145.89;2175151;82;21016;-66
2021/06/19 03:40:19;;;;;;;19.65;8.35;;;;;;;16.42;71.60;99142.27;2175115;82;20977;-65
2021/06/19 03:43:19;;;;;;;24.37;9.65;;;;;;;16.57;71.48;99148.13;2175234;82;21012;-66
2021/06/19 03:46:20;;;;;;;19.62;9.00;;;;;;;16.83;71.17;99139.87;2175238;82;21516;-66
2021/06/19 03:49:20;;;;;;;22.77;10.20;;;;;;;17.10;70.96;99142.08;2175176;82;20984;-63
2021/06/19 03:52:20;;;;;;;21.93;10.10;;;;;;;17.28;70.48;99146.34;2175107;82;21049;-66
2021/06/19 03:55:21;;;;;;;23.40;10.65;;;;;;;17.52;70.71;99146.55;2175358;82;20968;-68
2021/06/19 03:58:21;;;;;;;23.52;10.40;;;;;;;17.70;70.63;99150.79;2175294;82;20996;-65
2021/06/19 04:01:22;;;;;;;24.05;10.05;;;;;;;17.99;70.54;99152.77;2175149;82;21055;-66
2021/06/19 04:04:22;;;;;;;21.23;10.28;;;;;;;18.25;70.08;99147.01;2175260;82;21491;-67
2021/06/19 04:07:23;;;;;;;26.05;10.05;;;;;;;18.59;69.91;99147.98;2175154;82;21017;-64
2021/06/19 04:10:25;;;;;;;22.98;10.35;;;;;;;18.89;69.59;99140.42;2175134;82;20993;-64
2021/06/19 04:13:26;;;;;;;26.35;10.95;;;;;;;19.14;68.96;99138.20;2175199;82;20993;-69
2021/06/19 04:16:26;;;;;;;26.37;11.75;;;;;;;19.48;68.51;99137.72;2175562;82;20968;-72
2021/06/19 04:19:27;;;;;;;21.42;10.70;;;;;;;19.80;68.12;99140.06;2175415;82;21020;-64
2021/06/19 04:22:27;;;;;;;22.50;10.10;;;;;;;20.10;68.01;99133.28;2175056;82;21527;-63
2021/06/19 04:25:28;;;;;;;24.52;10.48;;;;;;;20.38;67.58;99132.30;2175370;82;21499;-67
2021/06/19 04:28:28;;;;;;;21.30;9.83;;;;;;;20.68;67.43;99125.49;2174951;82;20972;-68
2021/06/19 04:31:31;;;;;;;20.05;8.93;;;;;;;20.96;66.71;99116.08;2175339;82;20956;-71
2021/06/19 04:34:31;;;;;;;23.47;9.20;;;;;;;21.21;65.95;99123.30;2151763;82;20957;-68
2021/06/19 04:37:31;;;;;;;19.83;8.47;;;;;;;21.45;65.31;99125.31;2176907;82;21044;-70
2021/06/19 04:46:36;;;;;;;20.68;8.00;;;;;;;22.22;64.07;99119.22;2150259;82;20977;-77
2021/06/19 04:49:36;;;;;;;22.97;7.83;;;;;;;22.52;63.26;99114.85;2177343;82;21028;-69
2021/06/19 04:52:40;;;;;;;19.63;7.53;;;;;;;22.79;62.64;99118.56;2177428;81;20977;-78
2021/06/19 04:55:39;;;;;;;21.20;7.47;;;;;;;23.07;62.03;99122.77;2150058;82;20960;-79
2021/06/19 04:58:39;;;;;;;21.33;8.13;;;;;;;23.31;61.40;99117.95;2177195;82;21068;-76
2021/06/19 05:01:40;;;;;;;21.87;7.43;;;;;;;23.58;60.86;99115.40;2177297;82;20973;-77
2021/06/19 05:04:40;;;;;;;17.83;7.00;;;;;;;23.84;60.24;99111.14;2177437;82;20945;-74
2021/06/19 05:07:41;;;;;;;18.73;6.57;;;;;;;24.10;59.94;99108.73;2176941;82;21024;-76
2021/06/19 05:10:43;;;;;;;19.77;7.37;;;;;;;24.33;59.55;99099.92;2175497;82;21048;-79
2021/06/19 05:13:44;;;;;;;17.90;6.80;;;;;;;24.51;57.66;99101.83;2177397;82;21479;-71
2021/06/19 05:16:45;;;;;;;18.37;6.17;;;;;;;24.68;57.82;99102.59;2177286;82;21519;-77
2021/06/19 05:19:46;;;;;;;19.55;6.62;;;;;;;24.85;57.39;99097.92;2177126;82;21478;-78
2021/06/19 05:22:46;;;;;;;20.47;7.00;;;;;;;25.03;56.60;99111.56;2177401;82;20981;-76
2021/06/19 05:25:46;;;;;;;17.60;5.97;;;;;;;25.28;56.98;99107.32;2177211;82;20985;-79
2021/06/19 05:28:47;;;;;;;20.50;6.63;;;;;;;25.49;55.63;99108.82;2177461;82;20952;-68
2021/06/19 05:31:48;;;;;;;16.23;5.93;;;;;;;25.73;55.82;99109.56;2177359;82;21032;-68
2021/06/19 05:34:48;;;;;;;19.80;5.53;;;;;;;25.96;55.01;99102.78;2177385;81;20949;-67
2021/06/19 05:37:49;;;;;;;18.43;6.07;;;;;;;26.12;52.68;99101.77;2177251;82;21009;-78
2021/06/19 05:40:49;;;;;;;20.63;5.83;;;;;;;26.30;53.33;99100.53;2177243;82;20999;-65
2021/06/19 05:43:49;;;;;;;16.30;5.23;;;;;;;26.43;52.06;99100.18;2177380;82;21004;-68
2021/06/19 05:46:50;;;;;;;17.33;5.53;;;;;;;26.56;52.51;99098.64;2177381;82;20957;-70
2021/06/19 05:49:50;;;;;;;12.97;4.57;;;;;;;26.78;52.06;99100.36;2177164;82;20961;-72
2021/06/19 05:52:51;;;;;;;17.80;5.60;;;;;;;27.08;51.40;99097.53;2177018;82;20992;-69
2021/06/19 05:55:52;;;;;;;14.70;4.95;;;;;;;27.08;51.40;99097.53;2177220;82;20989;-70
2021/06/19 05:58:52;;;;;;;15.93;4.93;;;;;;;27.28;49.83;99097.70;2177336;82;21008;-70
2021/06/19 06:01:53;;;;;;;16.33;5.27;;;;;;;27.29;47.53;99097.98;2177235;82;20941;-70
2021/06/19 06:04:53;;;;;;;12.43;4.57;;;;;;;27.36;48.12;99088.66;2177235;81;20964;-68
2021/06/19 06:07:55;;;;;;;13.03;4.30;;;;;;;27.43;48.12;99092.75;2176852;82;21051;-74
2021/06/19 06:10:55;;;;;;;14.30;4.40;;;;;;;27.56;47.93;99096.88;2177152;82;21076;-66
2021/06/19 06:13:56;;;;;;;13.08;4.03;;;;;;;27.76;47.57;99098.88;2176893;82;20981;-69
2021/06/19 06:16:57;;;;;;;14.23;4.50;;;;;;;27.99;47.01;99097.25;2177473;82;20983;-67
2021/06/19 06:20:00;;;;;;;12.93;4.10;;;;;;;28.25;45.26;99091.66;2177327;82;21052;-66
2021/06/19 06:23:01;;;;;;;18.73;4.65;;;;;;;28.37;46.07;99092.72;2176966;82;20976;-67
2021/06/19 06:26:01;;;;;;;19.20;4.37;;;;;;;28.61;46.00;99097.26;2177484;82;20937;-67
2021/06/19 06:29:02;;;;;;;16.00;4.30;;;;;;;28.79;45.42;99089.94;2177167;82;20965;-66
2021/06/19 06:32:02;;;;;;;18.53;4.67;;;;;;;28.94;45.78;99098.69;2177457;82;20968;-66
2021/06/19 06:35:04;;;;;;;14.87;4.50;;;;;;;29.11;44.32;99091.54;2177341;82;20999;-69
2021/06/19 06:38:05;;;;;;;15.72;4.28;;;;;;;29.16;44.40;99094.43;2175112;81;21515;-71
2021/06/19 06:41:05;;;;;;;17.13;4.90;;;;;;;29.25;43.59;99095.08;2175303;82;21039;-69
2021/06/19 06:44:07;;;;;;;15.77;4.30;;;;;;;29.19;43.20;99094.01;2175474;82;21012;-70
2021/06/19 06:47:08;;;;;;;15.05;4.10;;;;;;;29.29;43.00;99100.38;2174990;82;20987;-68
2021/06/19 06:50:09;;;;;;;15.30;4.30;;;;;;;29.41;42.44;99105.97;2174970;82;21499;-66
2021/06/19 06:53:09;;;;;;;15.17;4.23;;;;;;;29.55;43.33;99103.06;2175311;82;21068;-69
2021/06/19 06:56:10;;;;;;;10.57;3.87;;;;;;;29.77;42.48;99100.61;2175317;82;20985;-66
2021/06/19 06:59:10;;;;;;;16.23;4.20;;;;;;;29.76;42.24;99102.48;2175447;82;21020;-66
2021/06/19 07:02:11;;;;;;;13.53;4.07;;;;;;;29.67;41.52;99101.89;2175316;82;21033;-66
2021/06/19 07:05:12;;;;;;;13.90;3.85;;;;;;;29.79;42.23;99103.94;2174969;82;20976;-65
2021/06/19 07:08:13;;;;;;;16.45;4.00;;;;;;;30.08;42.06;99107.20;2175169;82;21504;-66
2021/06/19 07:11:13;;;;;;;11.10;3.93;;;;;;;30.21;41.51;99110.70;2174851;82;20996;-67
2021/06/19 07:14:14;;;;;;;16.73;4.20;;;;;;;30.12;40.85;99101.69;2175216;82;21020;-66
2021/06/19 07:17:14;;;;;;;14.13;4.00;;;;;;;30.05;41.21;99095.76;2175077;82;20989;-69
2021/06/19 07:20:16;;;;;;;10.57;3.63;;;;;;;30.08;41.14;99096.39;2175127;82;21017;-68
2021/06/19 07:23:16;;;;;;;;;;;;;;;30.17;40.65;99088.33;2177573;82;21273;-68
2021/06/19 07:26:16;;;;;;;12.43;3.53;;;;;;;30.22;41.22;99097.99;2175344;81;20127;-67
2021/06/19 07:29:17;;;;;;;15.27;3.53;;;;;;;30.44;41.69;99101.23;2175261;82;21523;-67
2021/06/19 07:32:17;;;;;;;14.33;3.87;;;;;;;30.65;40.78;99098.73;2175176;82;21032;-72
2021/06/19 07:35:18;;;;;;;10.15;3.35;;;;;;;30.71;40.58;99097.84;2175014;82;21104;-66
2021/06/19 07:38:19;;;;;;;10.10;3.80;;;;;;;30.96;41.14;99096.22;2176667;82;20993;-69
2021/06/19 07:41:19;;;;;;;13.03;3.77;;;;;;;31.09;39.95;99092.92;2177275;82;20965;-66
2021/06/19 07:44:19;;;;;;;11.47;3.80;;;;;;;31.22;40.52;99091.13;2177182;82;21052;-66
2021/06/19 07:47:20;;;;;;;13.48;3.85;;;;;;;31.49;40.19;99085.48;2177281;81;20937;-68
2021/06/19 07:50:20;;;;;;;17.77;4.13;;;;;;;31.63;39.69;99085.67;2177400;82;20985;-74
2021/06/19 07:53:21;;;;;;;10.63;3.80;;;;;;;31.76;40.04;99081.45;2177579;82;21296;-67
2021/06/19 07:56:21;;;;;;;11.37;3.63;;;;;;;31.86;39.66;99080.11;2177482;82;20968;-65
2021/06/19 07:59:22;;;;;;;11.55;3.72;;;;;;;31.98;38.44;99078.31;2177174;82;20972;-67
2021/06/19 08:02:22;;;;;;;13.43;3.67;;;;;;;31.89;38.41;99079.66;2178072;82;21440;-66
2021/06/19 08:05:23;;;;;;;10.20;3.45;;;;;;;31.85;38.45;99078.45;2177298;82;20941;-66
2021/06/19 08:08:23;;;;;;;13.43;3.70;;;;;;;31.88;37.79;99080.19;2177293;82;20960;-68
2021/06/19 08:11:25;;;;;;;17.97;3.87;;;;;;;31.80;37.92;99087.80;2177259;82;21151;-74
2021/06/19 08:14:26;;;;;;;9.75;3.27;;;;;;;31.78;37.73;99081.25;2176963;82;21084;-67
2021/06/19 08:17:26;;;;;;;12.35;3.25;;;;;;;31.77;37.51;99078.23;2177041;82;21460;-66
2021/06/19 08:20:28;;;;;;;8.43;3.12;;;;;;;31.70;36.98;99081.55;2177155;81;21527;-67
2021/06/19 08:23:28;;;;;;;10.38;3.27;;;;;;;31.55;37.92;99073.73;2177286;82;20980;-66
2021/06/19 08:26:29;;;;;;;15.88;3.40;;;;;;;31.54;37.76;99078.87;2177389;81;20992;-67
2021/06/19 08:29:30;;;;;;;16.85;3.60;;;;;;;31.59;38.06;99082.59;2177333;82;20957;-66
2021/06/19 08:32:30;;;;;;;14.23;3.55;;;;;;;31.69;36.35;99082.05;2177259;82;20949;-66
2021/06/19 08:35:31;;;;;;;12.00;3.65;;;;;;;31.81;37.99;99069.95;2177486;82;21048;-65
2021/06/19 08:38:31;;;;;;;12.43;3.50;;;;;;;31.90;37.44;99079.97;2175407;82;20997;-65
2021/06/19 08:41:32;;;;;;;13.97;3.57;;;;;;;32.11;37.45;99080.84;2175505;82;21428;-66
2021/06/19 08:44:33;;;;;;;11.57;3.50;;;;;;;32.26;37.09;99073.68;2175400;82;21645;-66
2021/06/19 08:50:37;;;;;;;14.85;3.90;;;;;;;32.63;36.65;99068.69;2152049;82;21406;-66
2021/06/19 08:53:37;;;;;;;13.28;3.90;;;;;;;32.63;35.83;99076.84;2175058;82;21020;-66
2021/06/19 08:56:38;;;;;;;12.33;3.42;;;;;;;32.60;36.25;99071.33;2175266;82;21495;-70
2021/06/19 08:59:38;;;;;;;;;;;;;;;32.68;36.20;99063.95;2177753;82;20934;-66
2021/06/19 09:02:39;;;;;;;9.23;3.50;;;;;;;32.70;35.91;99065.38;2175254;81;20099;-66
2021/06/19 09:05:39;;;;;;;11.03;3.77;;;;;;;32.82;35.85;99065.39;2175383;82;20961;-66
2021/06/19 09:08:39;;;;;;;;;;;;;;;32.96;35.21;99063.30;2177573;82;21009;-65
2021/06/19 09:11:40;;;;;;;13.25;4.08;;;;;;;32.85;34.92;99060.84;2175530;81;20094;-66
2021/06/19 09:14:43;;;;;;;13.18;4.30;;;;;;;32.70;35.02;99064.53;2174696;82;21032;-66
2021/06/19 09:17:43;;;;;;;11.15;3.90;;;;;;;32.73;34.81;99058.12;2175106;82;21000;-66
2021/06/19 09:23:46;;;;;;;14.83;3.95;;;;;;;32.81;34.98;99056.94;2152084;82;21496;-67
2021/06/19 09:26:47;;;;;;;;;;;;;;;32.91;35.40;99063.16;2177734;82;21004;-66
2021/06/19 09:29:47;;;;;;;12.93;3.90;;;;;;;33.10;35.42;99068.80;2175334;81;20182;-66
2021/06/19 09:32:47;;;;;;;13.18;4.20;;;;;;;33.10;34.89;99070.16;2175410;82;21004;-67
2021/06/19 09:35:48;;;;;;;;;;;;;;;33.11;35.42;99072.34;2177621;82;21068;-66
2021/06/19 09:38:48;;;;;;;13.60;3.90;;;;;;;33.16;35.51;99069.75;2176633;81;20095;-68
2021/06/19 09:41:51;;;;;;;;;;;;;;;33.27;35.43;99068.12;2179731;82;20973;-66
2021/06/19 09:44:51;;;;;;;11.18;4.10;;;;;;;33.41;35.23;99076.33;2177110;82;20103;-66
2021/06/19 09:47:52;;;;;;;;;;;;;;;33.57;34.60;99080.75;2179673;82;21503;-66
2021/06/19 09:50:52;;;;;;;11.77;4.03;;;;;;;33.47;34.16;99076.73;2177337;82;20386;-66
2021/06/19 09:53:53;;;;;;;;;;;;;;;33.40;33.93;99073.30;2179664;82;20997;-67
2021/06/19 09:56:54;;;;;;;18.03;3.90;;;;;;;33.42;34.11;99073.09;2177284;82;20102;-66
2021/06/19 09:59:54;;;;;;;;;;;;;;;33.41;33.67;99076.88;2179521;81;21000;-66
2021/06/19 10:02:54;;;;;;;13.20;3.87;;;;;;;33.41;34.12;99067.36;2177226;82;20440;-66
2021/06/19 10:05:55;;;;;;;;;;;;;;;33.49;34.22;99062.38;2179574;82;20952;-65
2021/06/19 10:08:55;;;;;;;11.63;3.67;;;;;;;33.73;34.28;99053.36;2177294;82;20106;-66
2021/06/19 10:11:56;;;;;;;;;;;;;;;33.83;33.51;99054.44;2179750;82;20989;-66
2021/06/19 10:14:56;;;;;;;20.43;3.90;;;;;;;33.80;32.79;99052.17;2177290;82;20133;-67
2021/06/19 10:17:56;;;;;;;;;;;;;;;33.75;32.78;99050.73;2179493;82;21525;-66
2021/06/19 10:20:57;;;;;;;12.53;3.45;;;;;;;33.75;33.20;99043.94;2176840;82;20534;-66
2021/06/19 10:23:58;;;;;;;;;;;;;;;33.91;32.87;99042.89;2179558;82;20992;-67
2021/06/19 10:26:58;;;;;;;12.57;3.33;;;;;;;33.87;33.57;99043.08;2177393;82;20130;-66
2021/06/19 10:29:59;;;;;;;;;;;;;;;34.03;33.53;99051.83;2179600;81;20988;-66
2021/06/19 10:32:59;;;;;;;14.77;3.70;;;;;;;34.15;31.98;99047.69;2177198;82;20390;-66
2021/06/19 10:39:02;;;;;;;17.30;3.30;;;;;;;34.23;31.50;99056.02;2138636;82;20131;-66
2021/06/19 10:42:02;;;;;;;;;;;;;;;34.24;32.12;99053.05;2161895;82;20981;-66
2021/06/19 10:45:03;;;;;;;13.80;3.73;;;;;;;34.41;31.65;99055.01;2159925;82;20094;-66
2021/06/19 10:48:05;;;;;;;;;;;;;;;34.54;31.44;99056.09;2161912;82;20960;-67
2021/06/19 10:51:05;;;;;;;15.32;3.62;;;;;;;34.50;31.92;99052.20;2159362;82;20437;-66
2021/06/19 10:54:06;;;;;;;14.05;3.92;;;;;;;34.50;32.28;99042.67;2159569;82;21025;-66
2021/06/19 10:57:06;;;;;;;11.43;3.50;;;;;;;34.64;31.67;99033.11;2125524;83;21003;-66
2021/06/19 11:00:07;;;;;;;17.10;3.75;;;;;;;34.64;30.82;99033.63;2101805;85;21028;-68
2021/06/19 11:03:07;;;;;;;10.53;3.70;;;;;;;34.73;32.11;99042.24;2101909;85;21044;-66
2021/06/19 11:06:09;;;;;;;14.20;4.00;;;;;;;34.85;30.62;99021.20;2101817;85;21526;-66
2021/06/19 11:09:13;;;;;;;9.63;3.70;;;;;;;34.92;31.62;99030.03;2101741;85;21072;-67
2021/06/19 11:12:12;;;;;;;11.38;3.70;;;;;;;35.01;30.35;99029.08;2076774;85;21490;-66
2021/06/19 11:15:13;;;;;;;13.15;3.62;;;;;;;34.93;30.54;99025.44;2101784;85;21004;-67
2021/06/19 11:18:14;;;;;;;11.90;3.98;;;;;;;34.93;30.25;99018.08;2125471;84;20984;-67
2021/06/19 11:21:15;;;;;;;13.35;4.05;;;;;;;34.83;30.30;99007.84;2101512;85;21005;-66
2021/06/19 11:24:15;;;;;;;13.53;3.85;;;;;;;34.78;31.20;99003.63;2101625;85;21039;-66
2021/06/19 11:27:16;;;;;;;13.40;3.85;;;;;;;34.78;31.03;99008.27;2102142;85;20993;-66
2021/06/19 11:30:16;;;;;;;14.90;3.72;;;;;;;34.90;30.95;98994.06;2102314;85;21020;-67
2021/06/19 11:33:17;;;;;;;16.27;4.78;;;;;;;34.89;30.63;98991.59;2102181;85;21036;-66
2021/06/19 11:36:17;;;;;;;11.48;3.85;;;;;;;34.93;31.33;98996.83;2101688;85;21087;-67
2021/06/19 11:39:19;;;;;;;11.70;3.50;;;;;;;35.05;30.33;98993.45;2132761;83;21080;-69
2021/06/19 11:42:19;;;;;;;12.88;3.67;;;;;;;35.15;31.46;98996.86;2103914;85;21008;-66
2021/06/19 11:45:20;;;;;;;14.13;3.83;;;;;;;35.20;30.27;98993.67;2140418;83;21002;-66
2021/06/19 11:48:20;;;;;;;10.13;3.47;;;;;;;35.23;30.08;98990.99;2104048;84;21471;-67
2021/06/19 11:51:21;;;;;;;13.72;3.80;;;;;;;35.33;30.08;98984.34;2140285;83;21563;-66
2021/06/19 11:54:21;;;;;;;12.03;3.52;;;;;;;35.50;30.14;98988.38;2104001;84;21037;-67
2021/06/19 11:57:22;;;;;;;11.43;3.42;;;;;;;35.68;30.49;98991.86;2140253;83;21014;-66
2021/06/19 12:00:22;;;;;;;10.40;3.37;;;;;;;35.77;29.57;98989.51;2104031;85;21040;-67
2021/06/19 12:03:23;;;;;;;12.43;4.00;;;;;;;35.68;28.52;98975.50;2140381;83;21074;-66
2021/06/19 12:06:23;;;;;;;10.70;3.52;;;;;;;35.58;28.71;98978.11;2103914;84;21016;-67
2021/06/19 12:09:25;;;;;;;11.40;3.40;;;;;;;35.65;29.17;98965.91;2140329;83;20991;-66
2021/06/19 12:12:26;;;;;;;13.30;3.92;;;;;;;35.77;28.41;98969.86;2103976;84;21039;-69
2021/06/19 12:15:26;;;;;;;10.05;3.75;;;;;;;35.81;28.34;98961.48;2140599;83;21001;-66
2021/06/19 12:18:27;;;;;;;11.80;3.70;;;;;;;35.81;29.21;98962.84;2103997;84;21032;-67
2021/06/19 12:21:28;;;;;;;18.25;4.00;;;;;;;36.00;28.34;98951.03;2140075;83;21070;-66
2021/06/19 12:24:28;;;;;;;12.10;4.05;;;;;;;36.07;27.64;98944.02;2103650;84;21000;-66
2021/06/19 12:27:31;;;;;;;14.93;3.98;;;;;;;36.05;28.38;98953.83;2140195;83;21033;-67
2021/06/19 12:30:31;;;;;;;9.20;3.70;;;;;;;36.12;27.67;98947.33;2115999;83;21046;-66
2021/06/19 12:33:32;;;;;;;11.73;3.85;;;;;;;36.13;27.91;98955.25;2104196;84;20984;-67
2021/06/19 12:36:32;;;;;;;9.80;3.65;;;;;;;36.31;28.03;98951.91;2140357;83;21006;-66
2021/06/19 12:39:33;;;;;;;14.03;3.98;;;;;;;36.27;27.36;98950.75;2155538;82;21531;-66
2021/06/19 12:42:33;;;;;;;11.48;4.17;;;;;;;36.18;27.50;98943.58;2159462;82;21484;-66
2021/06/19 12:45:34;;;;;;;6.92;3.50;;;;;;;36.30;28.19;98942.07;2159268;82;21056;-67
2021/06/19 12:48:38;;;;;;;15.32;4.22;;;;;;;36.47;27.82;98934.56;2159244;82;21012;-66
2021/06/19 12:51:37;;;;;;;17.05;4.30;;;;;;;36.46;27.74;98934.83;2136731;82;21024;-67
2021/06/19 12:54:37;;;;;;;13.28;4.40;;;;;;;36.33;27.91;98943.72;2125385;83;20992;-67
2021/06/19 12:57:38;;;;;;;11.40;4.08;;;;;;;36.44;27.61;98934.28;2101814;85;21023;-66
2021/06/19 13:00:38;;;;;;;13.35;4.25;;;;;;;36.63;28.28;98932.77;2102004;85;20981;-67
2021/06/19 13:03:39;;;;;;;12.15;4.00;;;;;;;36.95;28.42;98934.63;2101928;85;20968;-67
2021/06/19 13:06:42;;;;;;;11.83;3.77;;;;;;;37.01;27.19;98928.65;2101962;85;20988;-66
2021/06/19 13:09:42;;;;;;;11.93;3.90;;;;;;;37.00;27.16;98936.04;2076789;85;21036;-66
2021/06/19 13:12:42;;;;;;;13.45;4.10;;;;;;;37.04;26.63;98942.63;2102095;85;20973;-67
2021/06/19 13:15:43;;;;;;;13.85;4.30;;;;;;;36.90;27.02;98938.72;2101855;85;21058;-67
2021/06/19 13:18:43;;;;;;;12.90;3.92;;;;;;;36.98;27.30;98937.38;2102024;85;21023;-67
2021/06/19 13:21:44;;;;;;;13.53;3.92;;;;;;;36.99;26.65;98930.28;2101557;85;21567;-67
2021/06/19 13:24:45;;;;;;;13.05;3.85;;;;;;;37.04;26.73;98937.68;2101893;85;21020;-67
2021/06/19 13:27:45;;;;;;;9.90;4.00;;;;;;;37.03;25.78;98932.77;2101993;85;21036;-67
2021/06/19 13:30:49;;;;;;;12.70;3.95;;;;;;;36.87;26.44;98929.13;2102094;85;21547;-67
2021/06/19 13:33:49;;;;;;;13.88;4.17;;;;;;;36.95;27.50;98933.27;2101997;85;20973;-66
2021/06/19 13:36:50;;;;;;;12.33;3.98;;;;;;;37.10;26.78;98920.24;2102193;85;20993;-67
2021/06/19 13:39:50;;;;;;;12.25;4.33;;;;;;;37.15;26.51;98918.07;2129257;83;20995;-67
2021/06/19 13:42:51;;;;;;;10.90;4.00;;;;;;;37.04;26.91;98926.75;2136096;83;20994;-67
2021/06/19 13:45:51;;;;;;;13.30;3.80;;;;;;;36.97;27.25;98922.91;2136193;83;21030;-66
2021/06/19 13:48:52;;;;;;;12.55;4.00;;;;;;;37.05;26.60;98913.38;2136125;83;21469;-69
2021/06/19 13:51:52;;;;;;;13.15;3.90;;;;;;;37.11;25.42;98898.63;2136161;83;21489;-67
2021/06/19 13:54:53;;;;;;;14.15;4.00;;;;;;;36.89;25.99;98915.20;2136154;83;20989;-67
2021/06/19 13:57:53;;;;;;;14.38;3.98;;;;;;;36.70;26.29;98913.42;2136010;83;21037;-67
2021/06/19 14:00:54;;;;;;;17.30;3.70;;;;;;;36.61;26.61;98914.46;2136174;83;21017;-67
2021/06/19 14:03:54;;;;;;;15.18;4.50;;;;;;;36.57;26.36;98911.42;2136046;83;21029;-67
2021/06/19 14:06:55;;;;;;;11.60;3.52;;;;;;;36.68;26.22;98904.66;2136128;83;21037;-67
2021/06/19 14:09:55;;;;;;;15.83;3.85;;;;;;;36.57;25.75;98898.31;2136244;83;20978;-66
2021/06/19 14:12:56;;;;;;;14.03;3.90;;;;;;;36.53;26.43;98900.73;2136086;83;21040;-68
2021/06/19 14:15:56;;;;;;;16.35;4.47;;;;;;;36.55;26.19;98890.91;2136134;83;21002;-67
2021/06/19 14:18:57;;;;;;;13.08;4.00;;;;;;;36.51;26.30;98894.73;2136334;83;20990;-66